createdAt,value
2019-05-28T00:01:31.489Z,99047.47
2019-05-28T00:03:37.989Z,99040.31
2019-05-28T00:05:44.389Z,99033.23
2019-05-28T00:07:53.124Z,99037.29
2019-05-28T00:09:59.488Z,99038.22
2019-05-28T00:12:06.308Z,99034.70
2019-05-28T00:14:12.786Z,99030.74
2019-05-28T00:16:20.297Z,99032.55
2019-05-28T00:18:26.752Z,99028.53
2019-05-28T00:20:33.146Z,99029.87
2019-05-28T00:22:39.592Z,99016.51
2019-05-28T00:24:46.124Z,99016.51
2019-05-28T00:26:52.596Z,99014.70
2019-05-28T00:28:59.127Z,99014.24
2019-05-28T00:31:05.782Z,99015.58
2019-05-28T00:33:12.859Z,99006.64
2019-05-28T00:35:19.573Z,99013.31
2019-05-28T00:37:26.034Z,99010.64
2019-05-28T00:39:32.716Z,99004.89
2019-05-28T00:41:39.183Z,99000.42
2019-05-28T00:43:45.702Z,98998.62
2019-05-28T00:45:52.163Z,98995.05
2019-05-28T00:47:58.710Z,98994.13
2019-05-28T00:50:10.556Z,98993.20
2019-05-28T00:52:17.098Z,98999.47
2019-05-28T00:54:23.651Z,98998.13
2019-05-28T00:56:30.357Z,98994.59
2019-05-28T00:58:38.262Z,98997.28
2019-05-28T01:00:48.484Z,98999.14
2019-05-28T01:02:54.903Z,98990.30
2019-05-28T01:05:01.451Z,98988.56
2019-05-28T01:07:07.860Z,99000.73
2019-05-28T01:09:14.302Z,98998.98
2019-05-28T01:11:20.850Z,99004.38
2019-05-28T01:13:28.062Z,98995.09
2019-05-28T01:15:34.558Z,98995.20
2019-05-28T01:17:41.166Z,98999.20
2019-05-28T01:19:47.565Z,98993.97
2019-05-28T01:21:53.989Z,98998.06
2019-05-28T01:24:00.459Z,98993.29
2019-05-28T01:26:06.885Z,98998.69
2019-05-28T01:28:13.390Z,98989.80
2019-05-28T01:30:19.988Z,98984.45
2019-05-28T01:32:26.535Z,98988.06
2019-05-28T01:34:32.969Z,98986.83
2019-05-28T01:36:39.361Z,98990.42
2019-05-28T01:38:45.760Z,98988.69
2019-05-28T01:40:52.240Z,98987.89
2019-05-28T01:42:58.655Z,98984.00
2019-05-28T01:45:06.960Z,98988.93
2019-05-28T01:47:13.417Z,98984.52
2019-05-28T01:49:19.820Z,98988.58
2019-05-28T01:51:26.235Z,98984.67
2019-05-28T01:53:32.640Z,98983.02
2019-05-28T01:55:39.054Z,98981.78
2019-05-28T01:57:45.454Z,98980.15
2019-05-28T01:59:51.924Z,98988.67
2019-05-28T02:01:58.485Z,98993.55
2019-05-28T02:04:05.457Z,98990.94
2019-05-28T02:06:11.856Z,98993.66
2019-05-28T02:08:18.301Z,98996.10
2019-05-28T02:10:25.626Z,98988.61
2019-05-28T02:12:32.109Z,98991.73
2019-05-28T02:14:38.528Z,98995.69
2019-05-28T02:16:44.926Z,98992.61
2019-05-28T02:18:51.324Z,98992.09
2019-05-28T02:20:57.796Z,98995.69
2019-05-28T02:23:05.372Z,98993.48
2019-05-28T02:25:12.371Z,98997.13
2019-05-28T02:27:18.801Z,98999.39
2019-05-28T02:29:25.283Z,98997.64
2019-05-28T02:31:31.742Z,99002.11
2019-05-28T02:33:38.137Z,98996.30
2019-05-28T02:35:45.277Z,98995.11
2019-05-28T02:37:51.800Z,98992.36
2019-05-28T02:39:58.226Z,98991.44
2019-05-28T02:42:04.752Z,98988.30
2019-05-28T02:44:11.190Z,98987.89
2019-05-28T02:46:17.591Z,98983.47
2019-05-28T02:48:24.067Z,98988.81
2019-05-28T02:50:53.247Z,98987.94
2019-05-28T02:53:01.076Z,98992.81
2019-05-28T02:55:10.062Z,98995.58
2019-05-28T02:57:16.569Z,98995.48
2019-05-28T02:59:25.566Z,98993.28
2019-05-28T03:01:44.545Z,98992.44
2019-05-28T03:03:48.488Z,98991.02
2019-05-28T03:05:58.601Z,98993.69
2019-05-28T03:08:05.809Z,98991.79
2019-05-28T03:10:12.703Z,98992.25
2019-05-28T03:12:19.207Z,98995.80
2019-05-28T03:14:25.603Z,98994.00
2019-05-28T03:16:36.459Z,98998.00
2019-05-28T03:18:44.177Z,99002.06
2019-05-28T03:20:51.801Z,98998.16
2019-05-28T03:22:59.329Z,98998.16
2019-05-28T03:25:08.948Z,98993.64
2019-05-28T03:27:16.594Z,98991.33
2019-05-28T03:29:23.206Z,98989.94
2019-05-28T03:31:29.706Z,99004.22
2019-05-28T03:33:36.265Z,99000.63
2019-05-28T03:35:45.259Z,98996.92
2019-05-28T03:37:53.411Z,98993.84
2019-05-28T03:40:04.988Z,98990.77
2019-05-28T03:42:11.417Z,98997.48
2019-05-28T03:44:18.895Z,99001.91
2019-05-28T03:46:25.494Z,99003.70
2019-05-28T03:48:31.913Z,98997.95
2019-05-28T03:50:38.434Z,98994.97
2019-05-28T03:52:44.877Z,99000.31
2019-05-28T03:54:51.354Z,99002.42
2019-05-28T03:56:57.747Z,98989.89
2019-05-28T03:59:04.441Z,99000.00
2019-05-28T04:01:10.923Z,99000.41
2019-05-28T04:03:20.509Z,99001.25
2019-05-28T04:05:27.013Z,99002.08
2019-05-28T04:07:33.520Z,98992.16
2019-05-28T04:09:39.907Z,98992.11
2019-05-28T04:11:46.347Z,98993.91
2019-05-28T04:13:52.828Z,98997.04
2019-05-28T04:15:59.260Z,99004.59
2019-05-28T04:18:06.062Z,99000.17
2019-05-28T04:20:12.797Z,99001.56
2019-05-28T04:22:19.258Z,99003.00
2019-05-28T04:24:25.654Z,99003.46
2019-05-28T04:26:32.131Z,99008.94
2019-05-28T04:28:38.605Z,99001.39
2019-05-28T04:30:45.685Z,98997.84
2019-05-28T04:32:52.170Z,98997.54
2019-05-28T04:34:58.542Z,98990.05
2019-05-28T04:37:05.112Z,98990.45
2019-05-28T04:39:11.590Z,98986.45
2019-05-28T04:41:18.047Z,98990.92
2019-05-28T04:43:24.563Z,98991.33
2019-05-28T04:45:31.034Z,98993.53
2019-05-28T04:47:37.505Z,98986.41
2019-05-28T04:49:43.985Z,98994.46
2019-05-28T04:51:50.392Z,98988.91
2019-05-28T04:53:56.806Z,98989.79
2019-05-28T04:56:03.354Z,98984.91
2019-05-28T04:58:09.911Z,98989.19
2019-05-28T05:00:16.939Z,98982.92
2019-05-28T05:02:23.490Z,98987.75
2019-05-28T05:04:30.369Z,98980.55
2019-05-28T05:06:36.886Z,98979.63
2019-05-28T05:08:43.282Z,98986.01
2019-05-28T05:10:49.736Z,98990.16
2019-05-28T05:12:56.128Z,98989.23
2019-05-28T05:15:03.066Z,98994.98
2019-05-28T05:17:10.250Z,98992.94
2019-05-28T05:19:16.797Z,98993.45
2019-05-28T05:21:23.186Z,98988.03
2019-05-28T05:23:29.634Z,98995.96
2019-05-28T05:25:36.250Z,98984.67
2019-05-28T05:27:42.698Z,98984.45
2019-05-28T05:29:49.230Z,98983.33
2019-05-28T05:31:55.760Z,98987.01
2019-05-28T05:34:02.178Z,98986.82
2019-05-28T05:36:09.619Z,98984.80
2019-05-28T05:38:16.031Z,98983.46
2019-05-28T05:40:22.843Z,98980.71
2019-05-28T05:42:29.370Z,98983.72
2019-05-28T05:44:35.996Z,98978.28
2019-05-28T05:46:43.540Z,98975.98
2019-05-28T05:48:49.927Z,98970.86
2019-05-28T05:50:56.326Z,98972.55
2019-05-28T05:53:04.021Z,98977.25
2019-05-28T05:55:11.440Z,98979.06
2019-05-28T05:57:17.842Z,98975.92
2019-05-28T05:59:24.241Z,98975.56
2019-05-28T06:01:30.664Z,98973.72
2019-05-28T06:03:40.775Z,98984.48
2019-05-28T06:05:45.251Z,98971.66
2019-05-28T06:07:52.349Z,98964.99
2019-05-28T06:09:58.724Z,98961.95
2019-05-28T06:12:05.370Z,98961.12
2019-05-28T06:14:11.737Z,98966.73
2019-05-28T06:16:18.141Z,98964.80
2019-05-28T06:18:24.556Z,98970.73
2019-05-28T06:20:31.011Z,98971.66
2019-05-28T06:22:37.502Z,98964.89
2019-05-28T06:24:43.932Z,98968.09
2019-05-28T06:26:50.471Z,98955.11
2019-05-28T06:28:56.959Z,98952.66
2019-05-28T06:31:03.426Z,98952.52
2019-05-28T06:33:09.896Z,98953.05
2019-05-28T06:35:16.730Z,98956.26
2019-05-28T06:37:23.181Z,98958.78
2019-05-28T06:39:29.572Z,98952.73
2019-05-28T06:41:36.152Z,98949.25
2019-05-28T06:43:42.536Z,98938.61
2019-05-28T06:45:49.869Z,98944.70
2019-05-28T06:47:56.273Z,98941.05
2019-05-28T06:50:02.837Z,98937.25
2019-05-28T06:52:09.224Z,98935.56
2019-05-28T06:54:15.703Z,98942.70
2019-05-28T06:56:22.190Z,98936.95
2019-05-28T06:58:39.528Z,98938.61
2019-05-28T07:00:36.428Z,98940.58
2019-05-28T07:02:42.778Z,98929.44
2019-05-28T07:04:49.285Z,98926.55
2019-05-28T07:06:59.057Z,98922.48
2019-05-28T07:09:06.605Z,98925.63
2019-05-28T07:11:13.091Z,98921.95
2019-05-28T07:13:19.553Z,98920.13
2019-05-28T07:15:26.118Z,98917.14
2019-05-28T07:17:32.489Z,98915.19
2019-05-28T07:19:38.883Z,98916.44
2019-05-28T07:21:45.312Z,98919.34
2019-05-28T07:23:51.704Z,98911.81
2019-05-28T07:25:58.089Z,98903.36
2019-05-28T07:28:10.757Z,98911.08
2019-05-28T07:30:13.131Z,98913.38
2019-05-28T07:32:19.598Z,98909.17
2019-05-28T07:34:30.890Z,98910.20
2019-05-28T07:36:35.352Z,98907.78
2019-05-28T07:38:41.751Z,98913.94
2019-05-28T07:40:48.193Z,98905.81
2019-05-28T07:42:54.738Z,98904.95
2019-05-28T07:45:01.164Z,98900.81
2019-05-28T07:47:10.948Z,98890.40
2019-05-28T07:49:15.049Z,98894.52
2019-05-28T07:51:21.440Z,98892.57
2019-05-28T07:53:39.468Z,98884.09
2019-05-28T07:55:35.096Z,98897.20
2019-05-28T07:57:41.395Z,98886.59
2019-05-28T07:59:47.769Z,98901.28
2019-05-28T08:01:54.222Z,98886.06
2019-05-28T08:04:00.693Z,98887.25
2019-05-28T08:06:07.169Z,98886.92
2019-05-28T08:08:17.908Z,98893.73
2019-05-28T08:10:24.318Z,98883.41
2019-05-28T08:12:30.968Z,98878.34
2019-05-28T08:14:37.365Z,98877.59
2019-05-28T08:16:52.327Z,98889.30
2019-05-28T08:18:52.016Z,98881.11
2019-05-28T08:20:58.504Z,98875.69
2019-05-28T08:23:05.492Z,98880.04
2019-05-28T08:25:23.977Z,98871.16
2019-05-28T08:27:20.803Z,98863.45
2019-05-28T08:29:27.091Z,98863.44
2019-05-28T08:31:33.577Z,98866.71
2019-05-28T08:33:40.040Z,98864.95
2019-05-28T08:35:46.467Z,98854.91
2019-05-28T08:37:52.888Z,98860.08
2019-05-28T08:39:59.285Z,98856.33
2019-05-28T08:42:05.969Z,98863.64
2019-05-28T08:44:12.524Z,98876.89
2019-05-28T08:46:18.979Z,98869.98
2019-05-28T08:48:25.505Z,98869.39
2019-05-28T08:50:34.997Z,98868.44
2019-05-28T08:52:40.023Z,98867.88
2019-05-28T08:54:46.418Z,98866.55
2019-05-28T08:56:52.849Z,98883.29
2019-05-28T08:58:59.407Z,98878.16
2019-05-28T09:01:06.143Z,98886.81
2019-05-28T09:03:14.111Z,98887.52
2019-05-28T09:05:26.470Z,98885.28
2019-05-28T09:07:28.401Z,98885.12
2019-05-28T09:09:34.653Z,98880.08
2019-05-28T09:11:41.053Z,98880.86
2019-05-28T09:13:47.589Z,98872.95
2019-05-28T09:15:56.052Z,98871.05
2019-05-28T09:18:03.542Z,98874.52
2019-05-28T09:20:10.480Z,98865.61
2019-05-28T09:22:25.809Z,98870.54
2019-05-28T09:24:27.698Z,98876.17
2019-05-28T09:26:33.155Z,98876.52
2019-05-28T09:28:39.661Z,98870.12
2019-05-28T09:30:46.279Z,98869.75
2019-05-28T09:32:52.840Z,98867.95
2019-05-28T09:35:02.239Z,98861.72
2019-05-28T09:37:07.409Z,98865.30
2019-05-28T09:39:13.946Z,98865.00
2019-05-28T09:41:20.368Z,98870.23
2019-05-28T09:43:26.756Z,98869.14
2019-05-28T09:45:33.280Z,98866.97
2019-05-28T09:47:39.788Z,98860.38
2019-05-28T09:49:46.348Z,98858.64
2019-05-28T09:51:52.891Z,98854.09
2019-05-28T09:53:59.367Z,98861.91
2019-05-28T09:56:06.484Z,98861.24
2019-05-28T09:58:12.949Z,98859.63
2019-05-28T10:00:23.446Z,98857.02
2019-05-28T10:02:30.323Z,98850.94
2019-05-28T10:04:48.058Z,98850.29
2019-05-28T10:06:44.910Z,98858.67
2019-05-28T10:08:51.398Z,98845.77
2019-05-28T10:10:57.867Z,98849.77
2019-05-28T10:13:04.591Z,98843.30
2019-05-28T10:15:11.523Z,98852.02
2019-05-28T10:17:17.945Z,98846.37
2019-05-28T10:19:25.420Z,98844.20
2019-05-28T10:21:32.735Z,98844.23
2019-05-28T10:23:39.186Z,98843.30
2019-05-28T10:25:45.725Z,98833.08
2019-05-28T10:28:00.690Z,98837.40
2019-05-28T10:30:00.332Z,98839.55
2019-05-28T10:32:06.859Z,98839.97
2019-05-28T10:34:13.246Z,98838.59
2019-05-28T10:36:35.020Z,98825.52
2019-05-28T10:38:27.904Z,98825.01
2019-05-28T10:40:34.394Z,98822.95
2019-05-28T10:42:40.805Z,98824.18
2019-05-28T10:44:47.218Z,98818.91
2019-05-28T10:46:53.604Z,98812.57
2019-05-28T10:49:00.067Z,98813.27
2019-05-28T10:51:06.668Z,98810.64
2019-05-28T10:53:13.270Z,98808.86
2019-05-28T10:55:19.913Z,98810.20
2019-05-28T10:57:26.370Z,98811.55
2019-05-28T10:59:32.758Z,98803.45
2019-05-28T11:01:40.150Z,98801.53
2019-05-28T11:03:47.326Z,98798.03
2019-05-28T11:05:54.971Z,98796.56
2019-05-28T11:08:01.438Z,98792.80
2019-05-28T11:10:23.186Z,98787.09
2019-05-28T11:12:17.953Z,98788.72
2019-05-28T11:14:24.484Z,98779.72
2019-05-28T11:16:30.936Z,98784.83
2019-05-28T11:18:37.420Z,98777.27
2019-05-28T11:20:43.882Z,98775.43
2019-05-28T11:22:50.284Z,98775.17
2019-05-28T11:24:56.784Z,98767.19
2019-05-28T11:27:03.265Z,98767.09
2019-05-28T11:29:09.662Z,98752.52
2019-05-28T11:31:16.111Z,98748.84
2019-05-28T11:33:23.635Z,98737.88
2019-05-28T11:35:30.185Z,98730.70
2019-05-28T11:37:36.631Z,98732.57
2019-05-28T11:39:43.260Z,98725.44
2019-05-28T11:41:49.658Z,98723.26
2019-05-28T11:43:56.148Z,98718.78
2019-05-28T11:46:02.558Z,98720.02
2019-05-28T11:48:09.036Z,98719.06
2019-05-28T11:50:17.210Z,98720.55
2019-05-28T11:52:23.890Z,98720.25
2019-05-28T11:54:32.353Z,98729.80
2019-05-28T11:56:38.736Z,98726.63
2019-05-28T11:58:45.145Z,98730.39
2019-05-28T12:00:51.752Z,98725.20
2019-05-28T12:02:58.230Z,98711.13
2019-05-28T12:05:10.516Z,98703.00
2019-05-28T12:07:25.930Z,98704.35
2019-05-28T12:09:25.087Z,98702.00
2019-05-28T12:11:31.543Z,98698.20
2019-05-28T12:13:37.931Z,98704.19
2019-05-28T12:15:44.415Z,98701.48
2019-05-28T12:17:51.012Z,98709.50
2019-05-28T12:19:57.412Z,98711.56
2019-05-28T12:22:03.882Z,98704.91
2019-05-28T12:24:12.675Z,98701.98
2019-05-28T12:26:19.080Z,98695.59
2019-05-28T12:28:37.726Z,98697.39
2019-05-28T12:30:34.107Z,98694.09
2019-05-28T12:32:40.722Z,98703.31
2019-05-28T12:34:47.137Z,98722.20
2019-05-28T12:36:53.527Z,98711.85
2019-05-28T12:38:59.939Z,98715.09
2019-05-28T12:41:06.528Z,98707.77
2019-05-28T12:43:12.963Z,98697.13
2019-05-28T12:45:34.403Z,98708.70
2019-05-28T12:47:28.279Z,98712.17
2019-05-28T12:49:34.672Z,98713.36
2019-05-28T12:51:41.442Z,98717.31
2019-05-28T12:53:50.784Z,98728.37
2019-05-28T12:55:56.072Z,98718.34
2019-05-28T12:58:02.529Z,98719.34
2019-05-28T13:00:12.999Z,98733.03
2019-05-28T13:02:19.439Z,98733.20
2019-05-28T13:04:25.964Z,98733.63
2019-05-28T13:06:32.437Z,98730.55
2019-05-28T13:08:38.886Z,98732.86
2019-05-28T13:10:45.319Z,98709.56
2019-05-28T13:12:51.746Z,98709.11
2019-05-28T13:14:58.141Z,98708.53
2019-05-28T13:17:04.617Z,98702.75
2019-05-28T13:19:11.010Z,98705.45
2019-05-28T13:21:17.466Z,98699.49
2019-05-28T13:23:23.862Z,98697.76
2019-05-28T13:25:30.270Z,98695.06
2019-05-28T13:27:36.656Z,98690.35
2019-05-28T13:29:43.070Z,98684.42
2019-05-28T13:31:49.625Z,98682.00
2019-05-28T13:33:56.094Z,98680.41
2019-05-28T13:36:02.555Z,98670.11
2019-05-28T13:38:25.861Z,98677.18
2019-05-28T13:40:18.615Z,98673.91
2019-05-28T13:42:25.159Z,98673.91
2019-05-28T13:44:31.563Z,98673.08
2019-05-28T13:46:38.047Z,98672.13
2019-05-28T13:48:44.468Z,98671.32
2019-05-28T13:50:50.855Z,98669.47
2019-05-28T13:52:57.415Z,98660.80
2019-05-28T13:55:05.213Z,98658.16
2019-05-28T13:57:11.604Z,98652.73
2019-05-28T13:59:18.008Z,98645.23
2019-05-28T14:01:25.675Z,98642.47
2019-05-28T14:03:33.473Z,98638.52
2019-05-28T14:05:39.880Z,98629.84
2019-05-28T14:07:46.349Z,98628.18
2019-05-28T14:09:52.744Z,98625.88
2019-05-28T14:11:59.129Z,98623.81
2019-05-28T14:14:06.532Z,98617.62
2019-05-28T14:16:13.005Z,98621.76
2019-05-28T14:18:19.578Z,98609.20
2019-05-28T14:20:26.242Z,98603.82
2019-05-28T14:22:34.356Z,98596.16
2019-05-28T14:24:40.810Z,98587.16
2019-05-28T14:26:47.212Z,98576.31
2019-05-28T14:28:53.979Z,98562.33
2019-05-28T14:31:00.789Z,98552.67
2019-05-28T14:33:07.270Z,98579.39
2019-05-28T14:35:14.557Z,98610.70
2019-05-28T14:37:20.948Z,98610.70
2019-05-28T14:39:40.645Z,98605.14
2019-05-28T14:41:35.475Z,98606.87
2019-05-28T14:43:41.999Z,98589.98
2019-05-28T14:45:48.562Z,98585.64
2019-05-28T14:47:55.003Z,98588.83
2019-05-28T14:50:01.553Z,98588.25
2019-05-28T14:52:09.065Z,98598.41
2019-05-28T14:54:15.472Z,98604.59
2019-05-28T14:56:21.951Z,98593.63
2019-05-28T14:58:28.397Z,98600.56
2019-05-28T15:00:34.947Z,98601.84
2019-05-28T15:02:41.416Z,98609.16
2019-05-28T15:04:47.877Z,98609.75
2019-05-28T15:06:57.210Z,98604.38
2019-05-28T15:09:17.112Z,98600.21
2019-05-28T15:11:10.578Z,98611.59
2019-05-28T15:13:17.125Z,98614.81
2019-05-28T15:15:35.124Z,98614.81
2019-05-28T15:17:31.979Z,98634.25
2019-05-28T15:19:39.355Z,98652.13
2019-05-28T15:21:45.865Z,98638.74
2019-05-28T15:23:52.334Z,98625.41
2019-05-28T15:25:58.748Z,98641.05
2019-05-28T15:28:05.405Z,98643.42
2019-05-28T15:30:14.198Z,98651.47
2019-05-28T15:32:19.944Z,98635.52
2019-05-28T15:34:26.347Z,98643.33
2019-05-28T15:36:32.833Z,98653.23
2019-05-28T15:38:39.249Z,98645.86
2019-05-28T15:40:46.209Z,98639.15
2019-05-28T15:43:05.004Z,98644.92
2019-05-28T15:45:00.791Z,98646.06
2019-05-28T15:47:07.388Z,98636.13
2019-05-28T15:49:13.853Z,98654.70
2019-05-28T15:51:20.311Z,98662.31
2019-05-28T15:53:26.792Z,98670.72
2019-05-28T15:55:33.255Z,98677.63
2019-05-28T15:57:39.872Z,98682.72
2019-05-28T15:59:46.352Z,98677.89
2019-05-28T16:01:52.744Z,98682.64
2019-05-28T16:03:59.222Z,98678.45
2019-05-28T16:06:06.172Z,98678.61
2019-05-28T16:08:12.624Z,98676.76
2019-05-28T16:10:19.526Z,98672.42
2019-05-28T16:12:26.378Z,98677.50
2019-05-28T16:14:32.764Z,98696.69
2019-05-28T16:16:39.157Z,98712.17
2019-05-28T16:18:45.569Z,98734.09
2019-05-28T16:20:51.968Z,98748.08
2019-05-28T16:22:58.363Z,98754.59
2019-05-28T16:25:07.531Z,98758.42
2019-05-28T16:27:14.023Z,98760.76
2019-05-28T16:29:20.433Z,98752.13
2019-05-28T16:31:26.893Z,98744.64
2019-05-28T16:33:33.357Z,98730.45
2019-05-28T16:35:39.882Z,98724.14
2019-05-28T16:37:46.280Z,98726.09
2019-05-28T16:39:52.716Z,98716.25
2019-05-28T16:42:00.204Z,98728.16
2019-05-28T16:44:07.338Z,98725.62
2019-05-28T16:46:13.743Z,98721.39
2019-05-28T16:48:20.133Z,98716.48
2019-05-28T16:50:26.540Z,98712.41
2019-05-28T16:52:32.941Z,98713.97
2019-05-28T16:54:40.420Z,98714.84
2019-05-28T16:56:46.897Z,98722.41
2019-05-28T16:58:53.403Z,98709.81
2019-05-28T17:01:19.110Z,98700.52
2019-05-28T17:03:08.873Z,98703.80
2019-05-28T17:05:15.624Z,98708.86
2019-05-28T17:07:22.154Z,98710.35
2019-05-28T17:09:28.600Z,98718.91
2019-05-28T17:11:35.267Z,98705.45
2019-05-28T17:13:47.514Z,98710.67
2019-05-28T17:15:49.903Z,98718.38
2019-05-28T17:17:56.316Z,98725.19
2019-05-28T17:20:03.161Z,98728.42
2019-05-28T17:22:10.985Z,98733.34
2019-05-28T17:24:17.623Z,98739.39
2019-05-28T17:26:24.130Z,98741.34
2019-05-28T17:28:30.610Z,98744.97
2019-05-28T17:30:37.087Z,98754.45
2019-05-28T17:32:44.718Z,98760.22
2019-05-28T17:34:51.423Z,98753.77
2019-05-28T17:36:57.944Z,98749.64
2019-05-28T17:39:06.124Z,98753.26
2019-05-28T17:41:12.670Z,98753.32
2019-05-28T17:43:19.979Z,98750.64
2019-05-28T17:45:26.551Z,98749.30
2019-05-28T17:47:41.795Z,98735.91
2019-05-28T17:49:41.042Z,98736.27
2019-05-28T17:51:47.467Z,98739.05
2019-05-28T17:53:53.995Z,98756.69
2019-05-28T17:56:00.438Z,98767.00
2019-05-28T17:58:06.907Z,98771.47
2019-05-28T18:00:16.193Z,98781.99
2019-05-28T18:02:22.677Z,98775.41
2019-05-28T18:04:29.048Z,98774.34
2019-05-28T18:06:35.485Z,98777.33
2019-05-28T18:08:41.865Z,98783.22
2019-05-28T18:11:03.311Z,98784.16
2019-05-28T18:12:56.518Z,98787.84
2019-05-28T18:15:02.980Z,98787.73
2019-05-28T18:17:09.504Z,98786.56
2019-05-28T18:19:16.210Z,98783.25
2019-05-28T18:21:22.740Z,98786.26
2019-05-28T18:23:29.266Z,98792.14
2019-05-28T18:25:35.791Z,98789.63
2019-05-28T18:27:42.321Z,98783.14
2019-05-28T18:29:48.868Z,98784.61
2019-05-28T18:31:55.580Z,98785.42
2019-05-28T18:34:02.128Z,98787.95
2019-05-28T18:36:08.733Z,98787.95
2019-05-28T18:38:15.115Z,98794.11
2019-05-28T18:40:22.211Z,98799.13
2019-05-28T18:42:28.692Z,98811.44
2019-05-28T18:44:35.168Z,98811.63
2019-05-28T18:46:41.556Z,98811.69
2019-05-28T18:48:49.144Z,98811.52
2019-05-28T18:50:55.613Z,98816.52
2019-05-28T18:53:03.177Z,98824.72
2019-05-28T18:55:10.001Z,98830.34
2019-05-28T18:57:18.273Z,98832.20
2019-05-28T18:59:26.195Z,98838.02
2019-05-28T19:01:32.876Z,98843.02
2019-05-28T19:03:39.361Z,98843.20
2019-05-28T19:05:45.755Z,98846.80
2019-05-28T19:07:52.299Z,98859.77
2019-05-28T19:09:58.820Z,98855.97
2019-05-28T19:12:05.290Z,98867.18
2019-05-28T19:14:11.916Z,98862.84
2019-05-28T19:16:18.398Z,98859.92
2019-05-28T19:18:24.880Z,98860.16
2019-05-28T19:20:31.478Z,98858.99
2019-05-28T19:22:38.036Z,98863.93
2019-05-28T19:24:44.460Z,98861.47
2019-05-28T19:26:50.853Z,98858.09
2019-05-28T19:28:57.667Z,98854.41
2019-05-28T19:31:05.478Z,98852.31
2019-05-28T19:33:12.066Z,98851.55
2019-05-28T19:35:18.532Z,98853.81
2019-05-28T19:37:25.402Z,98851.20
2019-05-28T19:39:32.926Z,98850.02
2019-05-28T19:41:52.363Z,98847.11
2019-05-28T19:43:47.587Z,98849.02
2019-05-28T19:45:54.197Z,98855.02
2019-05-28T19:48:00.787Z,98852.87
2019-05-28T19:50:08.553Z,98846.82
2019-05-28T19:52:15.114Z,98848.77
2019-05-28T19:54:22.855Z,98838.30
2019-05-28T19:56:29.378Z,98835.33
2019-05-28T19:58:35.804Z,98840.73
2019-05-28T20:00:42.797Z,98843.18
2019-05-28T20:02:49.378Z,98837.48
2019-05-28T20:04:55.953Z,98845.80
2019-05-28T20:07:02.497Z,98843.77
2019-05-28T20:09:09.716Z,98843.59
2019-05-28T20:11:16.245Z,98845.66
2019-05-28T20:13:22.863Z,98844.56
2019-05-28T20:15:29.327Z,98841.99
2019-05-28T20:17:35.853Z,98846.51
2019-05-28T20:19:42.510Z,98853.41
2019-05-28T20:21:52.095Z,98861.09
2019-05-28T20:23:57.203Z,98860.79
2019-05-28T20:26:03.594Z,98856.02
2019-05-28T20:28:10.149Z,98855.28
2019-05-28T20:30:18.302Z,98857.07
2019-05-28T20:32:24.895Z,98848.66
2019-05-28T20:34:31.404Z,98848.71
2019-05-28T20:36:40.549Z,98846.55
2019-05-28T20:38:49.515Z,98841.73
2019-05-28T20:40:56.094Z,98846.24
2019-05-28T20:43:02.633Z,98848.50
2019-05-28T20:45:15.664Z,98852.91
2019-05-28T20:47:22.685Z,98851.98
2019-05-28T20:49:29.169Z,98853.27
2019-05-28T20:51:35.579Z,98853.27
2019-05-28T20:53:42.139Z,98862.19
2019-05-28T20:55:48.614Z,98868.11
2019-05-28T20:57:57.384Z,98868.66
2019-05-28T21:00:06.877Z,98867.79
2019-05-28T21:02:14.929Z,98871.47
2019-05-28T21:04:21.321Z,98872.44
2019-05-28T21:06:28.039Z,98871.70
2019-05-28T21:08:34.430Z,98871.79
2019-05-28T21:10:40.896Z,98878.55
2019-05-28T21:12:48.359Z,98885.66
2019-05-28T21:14:54.927Z,98887.50
2019-05-28T21:17:01.588Z,98881.30
2019-05-28T21:19:11.808Z,98876.10
2019-05-28T21:21:18.356Z,98870.77
2019-05-28T21:23:24.831Z,98873.02
2019-05-28T21:25:31.423Z,98871.73
2019-05-28T21:27:38.080Z,98873.12
2019-05-28T21:29:44.578Z,98870.55
2019-05-28T21:31:51.019Z,98867.92
2019-05-28T21:33:57.500Z,98873.30
2019-05-28T21:36:03.989Z,98877.42
2019-05-28T21:38:10.449Z,98877.93
2019-05-28T21:40:19.882Z,98879.72
2019-05-28T21:42:26.369Z,98889.05
2019-05-28T21:44:32.782Z,98891.72
2019-05-28T21:46:39.244Z,98892.63
2019-05-28T21:48:46.386Z,98889.14
2019-05-28T21:50:52.887Z,98882.03
2019-05-28T21:52:59.449Z,98876.28
2019-05-28T21:55:10.543Z,98876.70
2019-05-28T21:57:17.013Z,98866.92
2019-05-28T21:59:23.430Z,98869.53
2019-05-28T22:01:34.194Z,98870.86
2019-05-28T22:03:40.589Z,98878.34
2019-05-28T22:05:47.123Z,98869.94
2019-05-28T22:07:55.383Z,98870.86
2019-05-28T22:10:02.408Z,98868.62
2019-05-28T22:12:10.552Z,98872.19
2019-05-28T22:14:17.187Z,98867.73
2019-05-28T22:16:23.645Z,98873.02
2019-05-28T22:18:30.309Z,98871.68
2019-05-28T22:20:36.793Z,98868.14
2019-05-28T22:22:43.324Z,98876.09
2019-05-28T22:24:49.799Z,98870.69
2019-05-28T22:27:00.235Z,98872.89
2019-05-28T22:29:08.039Z,98872.02
2019-05-28T22:31:15.060Z,98870.69
2019-05-28T22:33:21.686Z,98865.48
2019-05-28T22:35:28.333Z,98856.62
2019-05-28T22:37:34.836Z,98855.29
2019-05-28T22:39:41.256Z,98860.48
2019-05-28T22:41:47.656Z,98856.91
2019-05-28T22:43:54.364Z,98853.78
2019-05-28T22:46:01.238Z,98857.78
2019-05-28T22:48:15.633Z,98861.31
2019-05-28T22:50:22.813Z,98864.30
2019-05-28T22:52:25.059Z,98866.97
2019-05-28T22:54:31.467Z,98872.20
2019-05-28T22:56:37.937Z,98874.13
2019-05-28T22:58:44.335Z,98876.38
2019-05-28T23:00:50.888Z,98882.17
2019-05-28T23:02:58.742Z,98887.95
2019-05-28T23:05:10.682Z,98888.87
2019-05-28T23:07:18.146Z,98898.61
2019-05-28T23:09:24.670Z,98899.66
2019-05-28T23:11:31.214Z,98908.52
2019-05-28T23:13:46.427Z,98908.56
2019-05-28T23:15:45.731Z,98908.44
2019-05-28T23:17:52.234Z,98905.27
2019-05-28T23:19:58.684Z,98910.14
2019-05-28T23:22:05.170Z,98911.47
2019-05-28T23:24:11.565Z,98920.80
2019-05-28T23:26:18.087Z,98919.05
2019-05-28T23:28:24.626Z,98925.25
2019-05-28T23:30:31.027Z,98924.88
2019-05-28T23:32:37.434Z,98927.91
2019-05-28T23:34:43.971Z,98919.41
2019-05-28T23:36:50.378Z,98925.98
2019-05-28T23:38:56.794Z,98923.32
2019-05-28T23:41:03.214Z,98924.66
2019-05-28T23:43:09.638Z,98928.14
2019-05-28T23:45:16.340Z,98931.68
2019-05-28T23:47:22.778Z,98933.05
2019-05-28T23:49:30.263Z,98932.97
2019-05-28T23:51:36.744Z,98938.17
2019-05-28T23:53:43.278Z,98937.20
2019-05-28T23:55:49.676Z,98939.83
2019-05-28T23:57:56.154Z,98938.91
